WEATHER DATA

YESTERDAY
Time Temp. Dewp. Hum. Wind dir Wind speed Wind gust Bar.
00:00 20.3 16.1 77 0 0 1019.7
00:09 20.4 16.2 77 0 0 1019.7
00:20 20.4 16.2 77 0 0 1019.7
00:30 20.5 16.3 77 0 0 1019.6
00:40 20.4 16.2 77 0 0 1019.5
00:50 20.4 16.2 77 0 0 1019.4
01:00 20.4 16.2 77 0 0 1019.3
01:10 20.3 16.1 77 0 0 1019.1
01:20 20.2 16 77 0 0 1018.9
01:31 20 15.8 77 0 0 1018.8
01:40 19.9 15.8 77 0 0 1018.7
01:50 19.7 15.6 77 0 0 1018.4
02:00 19.5 15.4 77 0 0 1018.3
02:11 19.4 15.3 77 0 0 1018.4
02:20 19.2 15.1 77 0 0 1018
02:30 19 14.9 77 0 0 1017.7
02:41 18.9 15 78 0 0 1017.7
02:51 18.8 14.9 78 0 0 1017.8
03:00 18.8 14.9 78 0 0 1017.9
03:11 18.7 14.8 78 0 0 1018
03:21 18.7 14.8 78 0 0 1017.9
03:31 18.5 14.6 78 0 0 1017.8
03:40 18.5 14.6 78 0 0 1017.7
03:51 18.5 14.6 78 0 0 1017.7
04:01 18.5 14.6 78 0 0 1017.7
04:11 18.5 14.6 78 0 0 1017.8
04:21 18.4 14.5 78 0 0 1018
04:31 18.4 14.5 78 0 0 1018.3
04:41 18.4 14.5 78 0 0 1018.3
04:51 18.5 14.6 78 0 0 1018.3
05:02 18.5 14.6 78 0 0 1018.4
05:11 18.5 14.6 78 0 0 1018.3
05:21 18.7 15 79 0 0 1018.2
05:32 18.8 15.1 79 0 0 1018.4
05:42 18.9 15.2 79 0 0 1018.4
05:51 19 15.3 79 0 0 1018.4
06:01 19.1 15.4 79 0 0 1018.4
06:12 19.2 15.3 78 0 0 1018.3
06:22 19.3 15.4 78 0 0 1018.3
06:31 19.4 15.5 78 0 0 1018.4
06:42 19.5 15.6 78 0 0 1018.4
06:52 19.6 15.7 78 0 0 1018.6
07:02 19.7 15.8 78 0 0 1018.6
07:12 19.7 15.6 77 0 0 1018.7
07:22 19.8 15.7 77 0 0 1018.8
07:32 19.9 15.8 77 0 0 1018.8
07:42 20 15.8 77 0 0 1018.8
07:52 20 15.8 77 0 0 1018.8
08:02 20 15.6 76 0 0 1018.8
08:12 20 15.6 76 0 0 1018.9
08:22 20 15.6 76 0 0 1018.9
08:33 20 15.6 76 0 0 1019
08:42 20.1 15.7 76 0 0 1019
08:52 20.3 15.9 76 0 0 1019.1
09:03 20.4 16 76 0 0 1019
09:13 20.5 16.1 76 0 0 1019
09:22 20.6 16.2 76 0 0 1019
09:32 20.8 16.4 76 0 0 1019.1
09:43 21 16.4 75 0 0 1019
09:53 21.3 16.7 75 0 0 1019
10:02 21.6 17 75 0 0 1019.1
10:13 21.8 17 74 0 0 1019.2
10:23 22 17.2 74 0 0 1019.3
10:33 21.9 16.8 73 0 0 1019.3
10:43 21.8 16.7 73 0 0 1019.4
10:53 21.8 16.7 73 0 0 1019.5
11:03 21.5 16.5 73 0 0 1019.6
11:13 21.3 16.3 73 0 0 1019.6
11:23 21 16.2 74 0 0 1019.7
11:33 21 16.2 74 0 0 1019.8
11:43 20.7 15.9 74 0 0 1019.8
11:53 20.5 15.9 75 0 0 1019.8
12:04 20.5 16.1 76 0 0 1019.9
12:13 20.6 16.2 76 0 0 1019.8
12:23 20.7 16.3 76 0 0 1020
12:34 20.7 16.3 76 0 0 1020
12:44 20.7 16.3 76 0 0 1020.1
12:53 20.6 16.2 76 0 0 1020.1
13:04 20.3 15.9 76 0 0 1020.1
13:14 20.1 15.7 76 0 0 1020.3
13:24 19.9 15.5 76 0 0 1020.2
13:33 19.8 15.7 77 0 0 1020.2
13:44 19.9 15.8 77 0 0 1020.1
13:54 20.2 16 77 0 0 1020
14:04 20.9 16.9 78 0 0 1019.9
14:14 21.3 17.1 77 0 0 1019.9
14:24 21.4 17.2 77 0 0 1020
14:34 21.8 17.6 77 0 0 1019.9
14:44 22.1 17.7 76 0 0 1019.9
14:55 22.3 17.9 76 0 0 1019.8
15:04 22.4 17.8 75 0 0 1019.7
15:14 22.3 17.7 75 0 0 1019.8
15:25 22.2 17.3 74 0 0 1019.8
15:35 22 17.2 74 0 0 1019.8
15:44 21.9 17.1 74 0 0 1019.8
15:54 22.2 17.6 75 0 0 1019.8
16:05 22.2 17.3 74 0 0 1019.8
16:15 22.1 17.3 74 0 0 1019.8
16:24 22.2 17.3 74 0 0 1019.9
16:35 22.2 17.3 74 0 0 1019.8
16:45 22.2 17.1 73 0 0 1019.8
16:55 22.2 17.1 73 0 0 1019.8
17:05 22.3 17 72 0 0 1019.8
17:15 22.5 17.2 72 0 0 1019.7
17:25 22.9 17.6 72 0 0 1019.7
17:35 23.3 17.7 71 0 0 1019.7
17:46 23.7 17.9 70 0 0 1019.7
17:55 23.6 17.6 69 0 0 1019.6
18:05 23.7 17.7 69 0 0 1019.6
18:15 23.9 17.9 69 0 0 1019.5
18:26 24.1 17.8 68 0 0 1019.4
18:35 24.2 17.9 68 0 0 1019.4
18:45 24 17.7 68 0 0 1019.5
18:56 23.5 17.3 68 0 0 1019.6
19:06 23.4 17.4 69 0 0 1019.8
19:16 23.2 17.2 69 0 0 1019.9
19:26 22.9 17.1 70 0 0 1020
19:36 22.6 16.9 70 0 0 1020
19:46 22.3 16.6 70 0 0 1020.1
19:56 22 16.1 69 0 0 1020.2
20:06 21.8 16.1 70 0 0 1020.2
20:16 21.5 15.8 70 0 0 1020.2
20:26 21.2 15.7 71 0 0 1020.3
20:36 20.8 15.4 71 0 0 1020.4
20:46 20.5 15.3 72 0 0 1020.5
20:56 20.2 15.2 73 0 0 1020.5
21:06 19.8 14.8 73 0 0 1020.5
21:17 19.3 14.6 74 0 0 1020.5
21:26 19.1 14.4 74 0 0 1020.6
21:36 18.8 14.1 74 0 0 1020.6
21:46 18.5 14 75 0 0 1020.5
21:57 18.3 13.8 75 0 0 1020.5
22:07 18.2 13.7 75 0 0 1020.4
22:16 18.2 13.7 75 0 0 1020.4
22:27 18.3 13.6 74 0 0 1020.4
22:37 18.5 13.6 73 0 0 1020.3
22:47 18.5 13.4 72 0 0 1020.3
22:57 18.5 13.4 72 0 0 1020.4
23:07 18.6 13.5 72 0 0 1020.3
23:17 18.7 13.3 71 0 0 1020.4
23:27 18.6 13.2 71 0 0 1020.4
23:37 18.5 13.1 71 0 0 1020.3
23:47 18.4 13.3 72 0 0 1020.4
23:57 18.2 13.1 72 0 0 1020.6

DAY STATISTIC

2022-07-05
TEMPERATURE
AVERAGE
20.5
HIGH
24.2
18:35
LOW
18.2
22:07
PRESSURE
AVERAGE
1019.4
HIGH
1020.6
21:26
LOW
1017.7
02:30
DEWPOINT
AVERAGE
15.9
HIGH
17.9
14:55
LOW
13.1
23:37
HUMIDITY
AVERAGE
75
HIGH
79
05:21
LOW
68
18:26
WIND SPEED
AVERAGE
0.0
HIGH
0.0
13:48
WIND GUST
AVERAGE
0.0
HIGH
0.0
13:48
WIND DIRECTION
PREVAILING
%
TEMPERATURE (°C)
LOW
18.2
HIGH
24.2
AVERAGE
20.5
PRESSURE (hpa)
LOW
1017.7
HIGH
1020.6
AVERAGE
1019.4
DEVICE